createdAt,value
2022-08-30T00:01:33.697Z,22.10
2022-08-30T00:04:02.990Z,21.98
2022-08-30T00:06:31.851Z,22.02
2022-08-30T00:08:59.966Z,22.02
2022-08-30T00:11:28.566Z,21.95
2022-08-30T00:13:57.991Z,21.93
2022-08-30T00:16:27.062Z,21.98
2022-08-30T00:18:56.175Z,21.96
2022-08-30T00:21:23.802Z,22.01
2022-08-30T00:23:51.169Z,21.90
2022-08-30T00:26:18.404Z,21.96
2022-08-30T00:28:45.600Z,21.92
2022-08-30T00:31:15.433Z,21.89
2022-08-30T00:33:46.453Z,21.88
2022-08-30T00:36:13.745Z,21.85
2022-08-30T00:38:40.843Z,21.84
2022-08-30T00:41:08.214Z,21.83
2022-08-30T00:43:37.028Z,21.75
2022-08-30T00:46:08.491Z,21.70
2022-08-30T00:48:45.659Z,21.64
2022-08-30T00:51:15.644Z,21.68
2022-08-30T00:53:51.511Z,21.71
2022-08-30T00:56:19.601Z,21.67
2022-08-30T00:58:53.854Z,21.60
2022-08-30T01:01:21.957Z,21.54
2022-08-30T01:03:49.284Z,21.53
2022-08-30T01:06:17.730Z,21.50
2022-08-30T01:08:46.815Z,21.49
2022-08-30T01:11:17.700Z,21.44
2022-08-30T01:13:48.595Z,21.32
2022-08-30T01:16:27.337Z,21.31
2022-08-30T01:18:58.257Z,21.32
2022-08-30T01:21:39.646Z,21.35
2022-08-30T01:24:07.610Z,21.25
2022-08-30T01:26:36.169Z,21.28
2022-08-30T01:29:11.775Z,21.19
2022-08-30T01:31:39.247Z,21.20
2022-08-30T01:34:08.089Z,21.23
2022-08-30T01:36:44.669Z,21.26
2022-08-30T01:39:15.852Z,21.25
2022-08-30T01:41:47.625Z,21.20
2022-08-30T01:44:16.701Z,21.23
2022-08-30T01:46:47.332Z,21.17
2022-08-30T01:49:17.818Z,21.14
2022-08-30T01:52:00.619Z,21.15
2022-08-30T01:54:33.364Z,21.09
2022-08-30T01:57:08.285Z,21.17
2022-08-30T01:59:36.175Z,21.13
2022-08-30T02:02:05.746Z,21.11
2022-08-30T02:04:34.285Z,21.11
2022-08-30T02:07:01.987Z,21.13
2022-08-30T02:09:29.566Z,21.11
2022-08-30T02:11:56.795Z,21.09
2022-08-30T02:14:24.068Z,21.07
2022-08-30T02:16:51.238Z,21.08
2022-08-30T02:19:18.742Z,21.05
2022-08-30T02:21:45.771Z,21.06
2022-08-30T02:24:13.042Z,21.03
2022-08-30T02:26:40.874Z,21.04
2022-08-30T02:29:10.129Z,21.04
2022-08-30T02:31:38.358Z,21.10
2022-08-30T02:34:05.615Z,21.16
2022-08-30T02:36:32.739Z,21.11
2022-08-30T02:39:00.782Z,21.06
2022-08-30T02:41:27.843Z,21.07
2022-08-30T02:43:58.572Z,21.06
2022-08-30T02:46:26.157Z,21.14
2022-08-30T02:48:53.528Z,21.15
2022-08-30T02:51:20.723Z,21.18
2022-08-30T02:53:49.311Z,21.15
2022-08-30T02:56:18.349Z,21.13
2022-08-30T02:58:46.683Z,21.08
2022-08-30T03:01:17.997Z,21.11
2022-08-30T03:03:55.373Z,21.18
2022-08-30T03:06:22.776Z,21.18
2022-08-30T03:08:50.350Z,21.13
2022-08-30T03:11:17.442Z,21.13
2022-08-30T03:13:44.649Z,21.14
2022-08-30T03:16:12.150Z,21.14
2022-08-30T03:18:39.878Z,21.13
2022-08-30T03:21:12.799Z,21.10
2022-08-30T03:23:40.919Z,21.14
2022-08-30T03:26:10.821Z,21.05
2022-08-30T03:28:42.894Z,21.00
2022-08-30T03:31:10.476Z,21.04
2022-08-30T03:33:40.563Z,20.95
2022-08-30T03:36:09.296Z,21.07
2022-08-30T03:38:36.444Z,21.06
2022-08-30T03:41:06.026Z,21.06
2022-08-30T03:43:35.374Z,21.20
2022-08-30T03:46:03.038Z,21.15
2022-08-30T03:48:32.434Z,21.16
2022-08-30T03:51:00.779Z,21.16
2022-08-30T03:53:28.404Z,21.13
2022-08-30T03:55:55.754Z,21.11
2022-08-30T03:58:24.830Z,21.12
2022-08-30T04:00:52.074Z,21.15
2022-08-30T04:03:21.029Z,21.23
2022-08-30T04:05:48.046Z,21.21
2022-08-30T04:08:15.668Z,21.26
2022-08-30T04:10:43.061Z,21.39
2022-08-30T04:13:12.071Z,21.37
2022-08-30T04:15:43.063Z,21.41
2022-08-30T04:18:10.579Z,21.42
2022-08-30T04:20:38.265Z,21.52
2022-08-30T04:23:07.276Z,21.53
2022-08-30T04:25:36.037Z,21.61
2022-08-30T04:28:04.388Z,21.67
2022-08-30T04:30:31.589Z,21.73
2022-08-30T04:32:59.101Z,21.77
2022-08-30T04:35:27.370Z,21.89
2022-08-30T04:37:55.827Z,21.90
2022-08-30T04:40:24.650Z,21.93
2022-08-30T04:42:57.251Z,22.04
2022-08-30T04:45:25.940Z,22.11
2022-08-30T04:47:53.232Z,22.19
2022-08-30T04:50:23.609Z,22.27
2022-08-30T04:52:51.208Z,22.40
2022-08-30T04:55:20.409Z,22.47
2022-08-30T04:57:48.368Z,22.73
2022-08-30T05:02:44.102Z,22.99
2022-08-30T05:05:30.489Z,23.15
2022-08-30T05:07:58.104Z,23.31
2022-08-30T05:10:25.997Z,23.37
2022-08-30T05:12:53.739Z,23.34
2022-08-30T05:15:22.449Z,23.50
2022-08-30T05:17:49.719Z,23.39
2022-08-30T05:20:17.447Z,23.51
2022-08-30T05:22:54.281Z,23.66
2022-08-30T05:25:27.667Z,23.78
2022-08-30T05:27:55.485Z,23.87
2022-08-30T05:30:24.252Z,23.92
2022-08-30T05:32:52.132Z,23.95
2022-08-30T05:35:25.442Z,24.00
2022-08-30T05:37:54.290Z,23.99
2022-08-30T05:40:21.674Z,24.16
2022-08-30T05:42:48.738Z,24.28
2022-08-30T05:45:16.490Z,24.32
2022-08-30T05:47:43.806Z,24.39
2022-08-30T05:50:11.219Z,24.41
2022-08-30T05:52:40.529Z,24.55
2022-08-30T05:55:09.351Z,24.64
2022-08-30T05:57:38.800Z,24.70
2022-08-30T06:00:14.401Z,24.69
2022-08-30T06:02:42.412Z,24.84
2022-08-30T06:05:11.105Z,24.91
2022-08-30T06:07:42.557Z,24.97
2022-08-30T06:10:09.942Z,25.08
2022-08-30T06:12:37.640Z,25.10
2022-08-30T06:15:05.514Z,25.20
2022-08-30T06:17:32.872Z,25.27
2022-08-30T06:20:00.031Z,25.41
2022-08-30T06:22:27.583Z,25.32
2022-08-30T06:24:57.550Z,25.41
2022-08-30T06:27:25.380Z,25.50
2022-08-30T06:29:53.026Z,25.63
2022-08-30T06:32:20.303Z,25.78
2022-08-30T06:34:48.429Z,25.89
2022-08-30T06:37:29.190Z,25.90
2022-08-30T06:40:07.924Z,25.99
2022-08-30T06:42:35.124Z,26.06
2022-08-30T06:45:02.766Z,26.20
2022-08-30T06:47:38.351Z,26.23
2022-08-30T06:50:05.922Z,26.22
2022-08-30T06:52:33.083Z,26.36
2022-08-30T06:55:02.043Z,26.37
2022-08-30T06:57:30.497Z,26.45
2022-08-30T06:59:58.455Z,26.60
2022-08-30T07:02:26.671Z,26.67
2022-08-30T07:04:53.805Z,26.72
2022-08-30T07:07:20.918Z,26.83
2022-08-30T07:09:48.249Z,26.96
2022-08-30T07:12:16.023Z,27.08
2022-08-30T07:14:43.252Z,27.06
2022-08-30T07:17:33.879Z,26.98
2022-08-30T07:20:04.272Z,27.07
2022-08-30T07:22:33.677Z,27.19
2022-08-30T07:25:01.763Z,27.32
2022-08-30T07:27:31.713Z,27.33
2022-08-30T07:29:59.432Z,27.33
2022-08-30T07:32:28.103Z,27.51
2022-08-30T07:35:02.914Z,27.62
2022-08-30T07:37:32.739Z,27.64
2022-08-30T07:40:00.557Z,27.62
2022-08-30T07:42:27.759Z,27.76
2022-08-30T07:44:56.994Z,27.82
2022-08-30T07:47:24.172Z,27.68
2022-08-30T07:49:51.466Z,27.77
2022-08-30T07:52:18.522Z,27.92
2022-08-30T07:54:45.701Z,28.01
2022-08-30T07:57:12.853Z,28.03
2022-08-30T07:59:43.349Z,28.00
2022-08-30T08:02:10.610Z,28.07
2022-08-30T08:04:37.902Z,28.20
2022-08-30T08:07:05.407Z,28.26
2022-08-30T08:09:34.156Z,28.21
2022-08-30T08:12:01.310Z,28.24
2022-08-30T08:14:28.516Z,28.31
2022-08-30T08:16:55.714Z,28.31
2022-08-30T08:19:22.907Z,28.34
2022-08-30T08:21:59.348Z,28.52
2022-08-30T08:24:37.695Z,28.50
2022-08-30T08:27:04.795Z,28.55
2022-08-30T08:29:32.162Z,28.59
2022-08-30T08:32:00.360Z,28.71
2022-08-30T08:34:27.519Z,28.87
2022-08-30T08:36:55.276Z,28.88
2022-08-30T08:39:22.635Z,29.03
2022-08-30T08:42:05.282Z,29.14
2022-08-30T08:44:55.474Z,29.28
2022-08-30T08:47:32.039Z,29.37
2022-08-30T08:50:03.368Z,29.42
2022-08-30T08:53:05.391Z,29.13
2022-08-30T08:55:33.255Z,29.51
2022-08-30T08:58:01.400Z,29.63
2022-08-30T09:00:30.164Z,29.57
2022-08-30T09:03:03.284Z,29.66
2022-08-30T09:05:37.651Z,29.67
2022-08-30T09:08:11.800Z,29.64
2022-08-30T09:10:50.383Z,29.40
2022-08-30T09:13:21.056Z,29.62
2022-08-30T09:15:54.953Z,29.73
2022-08-30T09:18:48.978Z,29.81
2022-08-30T09:21:25.898Z,29.87
2022-08-30T09:24:04.741Z,29.70
2022-08-30T09:26:35.841Z,29.64
2022-08-30T09:29:05.164Z,29.59
2022-08-30T09:31:46.432Z,29.78
2022-08-30T09:34:19.287Z,29.66
2022-08-30T09:36:52.190Z,29.94
2022-08-30T09:39:31.526Z,30.00
2022-08-30T09:42:21.190Z,30.07
2022-08-30T09:44:48.689Z,30.04
2022-08-30T09:47:31.592Z,30.06
2022-08-30T09:50:07.331Z,30.03
2022-08-30T09:52:55.102Z,30.05
2022-08-30T09:55:44.171Z,30.22
2022-08-30T09:58:19.379Z,30.33
2022-08-30T10:00:57.182Z,30.40
2022-08-30T10:03:43.945Z,30.41
2022-08-30T10:06:50.137Z,30.39
2022-08-30T10:09:33.431Z,30.43
2022-08-30T10:12:13.421Z,30.41
2022-08-30T10:14:49.615Z,30.43
2022-08-30T10:17:28.445Z,30.55
2022-08-30T10:20:26.318Z,30.66
2022-08-30T10:23:02.477Z,30.64
2022-08-30T10:26:10.255Z,30.77
2022-08-30T10:28:50.240Z,30.80
2022-08-30T10:31:42.200Z,30.84
2022-08-30T10:34:17.118Z,30.88
2022-08-30T10:36:53.081Z,30.88
2022-08-30T10:39:31.423Z,31.07
2022-08-30T10:42:17.814Z,31.13
2022-08-30T10:44:51.071Z,31.24
2022-08-30T10:47:30.325Z,31.31
2022-08-30T10:50:15.213Z,31.41
2022-08-30T10:52:50.517Z,31.50
2022-08-30T10:55:49.875Z,31.49
2022-08-30T10:58:18.658Z,31.37
2022-08-30T11:01:12.406Z,31.42
2022-08-30T11:04:29.824Z,31.53
2022-08-30T11:07:34.881Z,31.68
2022-08-30T11:10:15.032Z,31.82
2022-08-30T11:13:05.472Z,31.72
2022-08-30T11:15:38.059Z,31.65
2022-08-30T11:18:13.646Z,31.77
2022-08-30T11:20:46.816Z,31.94
2022-08-30T11:23:26.163Z,31.97
2022-08-30T11:25:59.671Z,31.87
2022-08-30T11:28:50.784Z,31.86
2022-08-30T11:31:21.228Z,31.94
2022-08-30T11:33:57.912Z,32.01
2022-08-30T11:36:28.973Z,32.13
2022-08-30T11:39:10.615Z,32.16
2022-08-30T11:41:47.640Z,32.22
2022-08-30T11:44:15.286Z,32.27
2022-08-30T11:46:43.371Z,32.24
2022-08-30T11:49:15.692Z,32.43
2022-08-30T11:52:08.216Z,32.40
2022-08-30T11:55:00.575Z,32.37
2022-08-30T11:57:45.887Z,32.40
2022-08-30T12:00:40.851Z,32.48
2022-08-30T12:03:33.606Z,32.37
2022-08-30T12:06:05.595Z,32.45
2022-08-30T12:08:36.178Z,32.34
2022-08-30T12:11:09.260Z,32.34
2022-08-30T12:13:37.702Z,32.41
2022-08-30T12:16:09.387Z,32.41
2022-08-30T12:18:55.565Z,32.28
2022-08-30T12:21:33.434Z,32.30
2022-08-30T12:24:11.908Z,32.45
2022-08-30T12:26:45.013Z,32.47
2022-08-30T12:29:18.160Z,32.53
2022-08-30T12:31:51.393Z,32.59
2022-08-30T12:34:36.153Z,32.66
2022-08-30T12:37:19.339Z,32.85
2022-08-30T12:39:53.855Z,33.03
2022-08-30T12:42:22.821Z,33.11
2022-08-30T12:44:52.660Z,33.16
2022-08-30T12:47:27.046Z,33.26
2022-08-30T12:49:55.904Z,33.38
2022-08-30T12:52:36.124Z,33.41
2022-08-30T12:55:21.566Z,33.46
2022-08-30T12:58:01.969Z,33.54
2022-08-30T13:00:34.072Z,33.49
2022-08-30T13:03:30.763Z,33.33
2022-08-30T13:05:58.641Z,33.23
2022-08-30T13:08:37.091Z,33.27
2022-08-30T13:11:11.524Z,33.13
2022-08-30T13:13:52.149Z,33.17
2022-08-30T13:16:23.334Z,33.22
2022-08-30T13:19:14.598Z,33.12
2022-08-30T13:21:57.140Z,32.87
2022-08-30T13:24:25.802Z,32.81
2022-08-30T13:26:55.843Z,32.70
2022-08-30T13:29:27.074Z,32.56
2022-08-30T13:31:55.284Z,32.77
2022-08-30T13:34:24.276Z,32.88
2022-08-30T13:36:58.394Z,32.92
2022-08-30T13:39:26.725Z,33.11
2022-08-30T13:41:56.377Z,33.27
2022-08-30T13:44:43.004Z,33.46
2022-08-30T13:50:00.018Z,33.63
2022-08-30T13:52:28.214Z,33.79
2022-08-30T13:54:57.117Z,33.86
2022-08-30T14:00:19.959Z,33.90
2022-08-30T14:02:54.955Z,34.02
2022-08-30T14:05:50.116Z,34.10
2022-08-30T14:11:15.894Z,34.01
2022-08-30T14:16:31.600Z,33.59
2022-08-30T14:19:00.464Z,33.73
2022-08-30T14:21:28.636Z,33.78
2022-08-30T14:23:57.840Z,33.86
2022-08-30T14:26:51.980Z,33.75
2022-08-30T14:29:22.657Z,33.84
2022-08-30T14:31:52.034Z,33.84
2022-08-30T14:34:20.035Z,33.78
2022-08-30T14:36:47.692Z,33.71
2022-08-30T14:39:19.011Z,33.73
2022-08-30T14:41:50.308Z,33.72
2022-08-30T14:44:18.727Z,33.61
2022-08-30T14:46:46.660Z,33.48
2022-08-30T14:49:15.763Z,33.39
2022-08-30T14:51:46.474Z,33.42
2022-08-30T14:54:13.899Z,33.45
2022-08-30T14:56:41.975Z,33.61
2022-08-30T14:59:10.421Z,33.48
2022-08-30T15:01:41.947Z,33.52
2022-08-30T15:04:10.701Z,33.50
2022-08-30T15:06:39.413Z,33.43
2022-08-30T15:09:09.924Z,33.33
2022-08-30T15:11:38.222Z,33.34
2022-08-30T15:14:06.764Z,33.37
2022-08-30T15:16:36.612Z,33.18
2022-08-30T15:19:06.309Z,33.10
2022-08-30T15:21:42.173Z,32.94
2022-08-30T15:24:13.086Z,32.91
2022-08-30T15:26:43.729Z,32.68
2022-08-30T15:29:13.910Z,32.84
2022-08-30T15:31:42.228Z,32.88
2022-08-30T15:34:13.089Z,32.72
2022-08-30T15:36:42.389Z,32.60
2022-08-30T15:39:11.346Z,32.54
2022-08-30T15:41:39.932Z,32.51
2022-08-30T15:44:12.310Z,32.36
2022-08-30T15:46:43.894Z,32.26
2022-08-30T15:49:16.542Z,32.19
2022-08-30T15:51:45.874Z,32.17
2022-08-30T15:54:17.293Z,32.14
2022-08-30T15:56:45.437Z,32.05
2022-08-30T15:59:15.538Z,32.07
2022-08-30T16:01:44.301Z,32.03
2022-08-30T16:04:12.256Z,31.98
2022-08-30T16:06:39.693Z,31.92
2022-08-30T16:09:10.463Z,31.75
2022-08-30T16:11:38.220Z,31.67
2022-08-30T16:14:06.852Z,31.58
2022-08-30T16:16:37.901Z,31.50
2022-08-30T16:19:07.457Z,31.40
2022-08-30T16:21:40.110Z,31.37
2022-08-30T16:24:10.718Z,31.28
2022-08-30T16:26:43.189Z,31.20
2022-08-30T16:29:12.529Z,31.10
2022-08-30T16:31:40.933Z,31.01
2022-08-30T16:34:08.106Z,30.91
2022-08-30T16:36:36.101Z,30.78
2022-08-30T16:39:08.586Z,30.71
2022-08-30T16:41:37.308Z,30.56
2022-08-30T16:44:06.377Z,30.52
2022-08-30T16:46:34.863Z,30.41
2022-08-30T16:49:02.537Z,30.33
2022-08-30T16:51:32.756Z,30.23
2022-08-30T16:54:04.570Z,30.07
2022-08-30T16:56:33.252Z,29.98
2022-08-30T16:59:03.011Z,29.83
2022-08-30T17:01:35.001Z,29.69
2022-08-30T17:04:03.283Z,29.60
2022-08-30T17:06:31.158Z,29.54
2022-08-30T17:08:59.416Z,29.48
2022-08-30T17:11:26.918Z,29.34
2022-08-30T17:13:54.562Z,29.28
2022-08-30T17:16:28.033Z,29.19
2022-08-30T17:19:01.140Z,29.11
2022-08-30T17:21:29.511Z,29.05
2022-08-30T17:24:02.296Z,28.95
2022-08-30T17:26:32.462Z,28.89
2022-08-30T17:29:00.181Z,28.79
2022-08-30T17:31:30.602Z,28.74
2022-08-30T17:34:04.041Z,28.61
2022-08-30T17:36:35.430Z,28.60
2022-08-30T17:39:10.588Z,28.49
2022-08-30T17:41:45.231Z,28.42
2022-08-30T17:44:20.105Z,28.34
2022-08-30T17:46:47.567Z,28.30
2022-08-30T17:49:15.169Z,28.19
2022-08-30T17:51:49.457Z,28.12
2022-08-30T17:54:21.041Z,28.05
2022-08-30T17:56:52.086Z,27.96
2022-08-30T17:59:20.299Z,27.89
2022-08-30T18:01:54.664Z,27.75
2022-08-30T18:04:24.849Z,27.73
2022-08-30T18:06:53.040Z,27.70
2022-08-30T18:09:21.064Z,27.61
2022-08-30T18:11:57.717Z,27.56
2022-08-30T18:14:25.707Z,27.56
2022-08-30T18:16:54.542Z,27.57
2022-08-30T18:19:25.939Z,27.42
2022-08-30T18:21:55.367Z,27.50
2022-08-30T18:24:23.382Z,27.47
2022-08-30T18:26:50.800Z,27.47
2022-08-30T18:29:25.972Z,27.43
2022-08-30T18:32:01.813Z,27.40
2022-08-30T18:34:30.515Z,27.42
2022-08-30T18:36:57.949Z,27.43
2022-08-30T18:39:25.473Z,27.49
2022-08-30T18:41:54.836Z,27.55
2022-08-30T18:44:28.351Z,27.52
2022-08-30T18:46:57.989Z,27.44
2022-08-30T18:49:29.463Z,27.43
2022-08-30T18:52:01.131Z,27.50
2022-08-30T18:54:29.056Z,27.53
2022-08-30T18:56:56.103Z,27.51
2022-08-30T18:59:23.329Z,27.48
2022-08-30T19:02:05.199Z,27.46
2022-08-30T19:04:35.754Z,27.41
2022-08-30T19:07:07.735Z,27.44
2022-08-30T19:09:35.658Z,27.43
2022-08-30T19:12:09.362Z,27.43
2022-08-30T19:14:37.503Z,27.40
2022-08-30T19:17:07.255Z,27.38
2022-08-30T19:19:37.401Z,27.36
2022-08-30T19:22:15.950Z,27.29
2022-08-30T19:24:43.476Z,27.25
2022-08-30T19:27:11.104Z,27.22
2022-08-30T19:29:40.050Z,27.16
2022-08-30T19:32:08.491Z,27.19
2022-08-30T19:34:37.607Z,27.08
2022-08-30T19:37:14.648Z,27.06
2022-08-30T19:39:46.811Z,26.90
2022-08-30T19:42:14.118Z,26.86
2022-08-30T19:44:43.718Z,26.92
2022-08-30T19:47:18.873Z,26.85
2022-08-30T19:49:46.370Z,26.83
2022-08-30T19:52:13.468Z,26.72
2022-08-30T19:54:41.255Z,26.64
2022-08-30T19:57:09.975Z,26.63
2022-08-30T19:59:38.318Z,26.62
2022-08-30T20:02:06.681Z,26.60
2022-08-30T20:04:40.906Z,26.63
2022-08-30T20:07:10.445Z,26.64
2022-08-30T20:09:37.764Z,26.63
2022-08-30T20:12:05.239Z,26.56
2022-08-30T20:14:32.917Z,26.51
2022-08-30T20:19:47.890Z,26.36
2022-08-30T20:22:15.337Z,26.33
2022-08-30T20:24:43.896Z,26.32
2022-08-30T20:27:11.611Z,26.28
2022-08-30T20:29:40.435Z,26.22
2022-08-30T20:32:07.613Z,26.13
2022-08-30T20:34:34.998Z,26.11
2022-08-30T20:37:08.192Z,25.96
2022-08-30T20:39:36.156Z,25.90
2022-08-30T20:42:05.002Z,25.90
2022-08-30T20:44:32.234Z,25.80
2022-08-30T20:46:59.590Z,25.89
2022-08-30T20:49:27.829Z,25.85
2022-08-30T20:51:55.612Z,25.77
2022-08-30T20:54:23.796Z,25.80
2022-08-30T20:56:51.603Z,25.77
2022-08-30T20:59:18.783Z,25.80
2022-08-30T21:01:48.471Z,25.75
2022-08-30T21:04:17.156Z,25.73
2022-08-30T21:06:44.298Z,25.69
2022-08-30T21:09:11.788Z,25.67
2022-08-30T21:11:38.941Z,25.52
2022-08-30T21:14:12.289Z,25.47
2022-08-30T21:16:39.542Z,25.35
2022-08-30T21:19:06.997Z,25.25
2022-08-30T21:21:34.233Z,25.23
2022-08-30T21:24:06.779Z,25.23
2022-08-30T21:26:34.078Z,25.17
2022-08-30T21:29:01.295Z,25.12
2022-08-30T21:31:29.369Z,25.07
2022-08-30T21:33:56.966Z,24.99
2022-08-30T21:36:45.298Z,24.98
2022-08-30T21:39:28.033Z,24.86
2022-08-30T21:41:57.130Z,24.77
2022-08-30T21:44:26.789Z,24.66
2022-08-30T21:46:55.042Z,24.75
2022-08-30T21:49:23.691Z,24.72
2022-08-30T21:51:53.698Z,24.70
2022-08-30T21:54:22.147Z,24.66
2022-08-30T21:56:51.186Z,24.65
2022-08-30T21:59:19.634Z,24.67
2022-08-30T22:01:48.345Z,24.72
2022-08-30T22:04:16.213Z,24.73
2022-08-30T22:06:50.216Z,24.74
2022-08-30T22:09:21.578Z,24.74
2022-08-30T22:11:50.023Z,24.74
2022-08-30T22:14:18.218Z,24.69
2022-08-30T22:16:46.306Z,24.66
2022-08-30T22:19:13.857Z,24.64
2022-08-30T22:21:42.784Z,24.62
2022-08-30T22:24:10.801Z,24.64
2022-08-30T22:26:38.197Z,24.61
2022-08-30T22:29:06.810Z,24.69
2022-08-30T22:31:34.446Z,24.64
2022-08-30T22:34:01.680Z,24.63
2022-08-30T22:36:32.829Z,24.57
2022-08-30T22:39:01.700Z,24.62
2022-08-30T22:41:31.144Z,24.56
2022-08-30T22:43:59.162Z,24.50
2022-08-30T22:46:33.850Z,24.56
2022-08-30T22:49:06.627Z,24.43
2022-08-30T22:51:35.027Z,24.43
2022-08-30T22:54:03.681Z,24.31
2022-08-30T22:56:33.021Z,24.22
2022-08-30T22:59:00.304Z,24.19
2022-08-30T23:01:30.390Z,24.21
2022-08-30T23:03:58.891Z,24.22
2022-08-30T23:06:26.163Z,24.22
2022-08-30T23:08:53.797Z,24.15
2022-08-30T23:11:21.306Z,24.21
2022-08-30T23:13:48.611Z,24.20
2022-08-30T23:16:17.571Z,24.06
2022-08-30T23:18:45.631Z,24.13
2022-08-30T23:21:21.312Z,24.06
2022-08-30T23:24:08.497Z,24.01
2022-08-30T23:26:54.714Z,23.94
2022-08-30T23:29:40.353Z,23.86
2022-08-30T23:32:26.569Z,23.91
2022-08-30T23:35:12.420Z,23.86
2022-08-30T23:37:59.209Z,23.76
2022-08-30T23:40:47.301Z,23.75
2022-08-30T23:43:33.255Z,23.67
2022-08-30T23:46:19.737Z,23.65
2022-08-30T23:49:06.402Z,23.62
2022-08-30T23:51:53.774Z,23.53
2022-08-30T23:54:39.446Z,23.49
2022-08-30T23:57:25.839Z,23.46
